Blaine, Ohio
Current Conditions -  °F | °C
As of 8:53 AM on Monday 22 Dec 2014 (Local Time) from KHLG Reporting Station
Overcast Overcast  
Wind Chill: 26°   Ceiling: 4700
Heat Index: 31°   Visibility: 7mi
Dew Point: 25°   Wind: 5mph
Humidity: 79%   Direction: 80°E
Pressure: 30.1"   Gusts: NA
Location:  40.07°N, 80.82°W
Report Text: KHLG 221353Z 08004KT 7SM OVC047 M01/M04 A3010 RMK AO2 SLP208 T10061039
Loading
Personal Weather Stations






























Interactive Weather Map New forecast layout! Learn more

10-Day Weather Forecast

Advertisements
Track Severe Weather on mobile